Time;durP1;ratioP1;P1;durP2;ratioP2;P2;SDS_P1;SDS_P2;PMS_P1;PMS_P2;Temp;Humidity;BMP_temperature;BMP_pressure;BME280_temperature;BME280_humidity;BME280_pressure;Samples;Min_cycle;Max_cycle;Signal;HPM_P1;HPM_P2
2021/07/08 00:00:58;;;;;;;0.30;0.30;;;16.90;99.90;;;;;;5035916;28;20208;-88
2021/07/08 00:03:24;;;;;;;0.37;0.37;;;17.00;99.90;;;;;;5036059;28;20205;-87
2021/07/08 00:05:50;;;;;;;0.10;0.10;;;17.10;99.90;;;;;;5035655;28;20174;-86
2021/07/08 00:08:16;;;;;;;0.60;0.30;;;17.10;99.90;;;;;;5035860;28;20258;-86
2021/07/08 00:10:45;;;;;;;0.23;0.23;;;16.90;99.90;;;;;;5036113;28;20220;-86
2021/07/08 00:13:12;;;;;;;0.10;0.10;;;16.80;99.90;;;;;;5053448;28;20184;-86
2021/07/08 00:15:38;;;;;;;0.40;0.40;;;16.70;99.90;;;;;;5035944;28;20715;-86
2021/07/08 00:18:08;;;;;;;0.10;0.10;;;16.60;99.90;;;;;;5053127;28;20197;-86
2021/07/08 00:20:34;;;;;;;0.33;0.30;;;16.60;99.90;;;;;;5035995;28;20181;-86
2021/07/08 00:22:59;;;;;;;0.20;0.20;;;16.60;99.90;;;;;;5035534;28;20180;-86
2021/07/08 00:25:28;;;;;;;0.30;0.30;;;16.70;99.90;;;;;;5035633;28;20179;-86
2021/07/08 00:27:54;;;;;;;0.33;0.33;;;16.60;99.90;;;;;;5046208;28;20226;-86
2021/07/08 00:30:21;;;;;;;0.50;0.50;;;16.50;99.90;;;;;;5035598;28;20277;-87
2021/07/08 00:32:48;;;;;;;0.30;0.30;;;16.40;99.90;;;;;;5053313;28;20708;-88
2021/07/08 00:35:13;;;;;;;0.10;0.10;;;16.40;99.90;;;;;;5052060;28;20204;-87
2021/07/08 00:37:39;;;;;;;0.30;0.30;;;16.40;99.90;;;;;;5035241;28;20183;-87
2021/07/08 00:40:08;;;;;;;0.30;0.30;;;16.40;99.90;;;;;;5035293;28;20177;-87
2021/07/08 00:42:34;;;;;;;0.30;0.30;;;16.60;99.90;;;;;;5055349;28;20188;-87
2021/07/08 00:44:59;;;;;;;0.40;0.20;;;16.70;99.90;;;;;;5035169;28;20209;-87
2021/07/08 00:47:27;;;;;;;0.10;0.10;;;16.60;99.90;;;;;;5035034;28;20315;-87
2021/07/08 00:49:53;;;;;;;0.20;0.20;;;16.50;99.90;;;;;;5068316;28;20570;-86
2021/07/08 00:52:18;;;;;;;0.23;0.23;;;16.40;99.90;;;;;;5035236;28;20364;-87
2021/07/08 00:54:44;;;;;;;0.20;0.20;;;16.50;99.90;;;;;;5035122;28;20208;-87
2021/07/08 00:57:10;;;;;;;0.20;0.20;;;16.70;99.90;;;;;;5034585;28;20189;-87
2021/07/08 00:59:43;;;;;;;0.20;0.17;;;16.90;99.90;;;;;;5035245;28;20552;-87
2021/07/08 01:02:13;;;;;;;0.10;0.10;;;17.10;99.90;;;;;;5047134;28;20259;-87
2021/07/08 01:04:42;;;;;;;0.10;0.10;;;17.20;99.90;;;;;;5046720;28;20216;-86
2021/07/08 01:07:09;;;;;;;0.60;0.30;;;17.20;99.90;;;;;;5034702;28;20572;-87
2021/07/08 01:09:35;;;;;;;0.50;0.40;;;17.30;99.90;;;;;;5034455;28;20196;-86
2021/07/08 01:12:01;;;;;;;0.10;0.10;;;17.30;99.90;;;;;;5034790;28;20196;-86
2021/07/08 01:14:26;;;;;;;0.20;0.20;;;17.20;99.90;;;;;;5034249;28;20216;-87
2021/07/08 01:16:52;;;;;;;1.13;0.73;;;17.20;99.90;;;;;;5034502;28;20197;-88
2021/07/08 01:19:17;;;;;;;0.13;0.13;;;17.30;99.90;;;;;;5052817;28;20184;-87
2021/07/08 01:21:43;;;;;;;0.47;0.47;;;17.30;99.90;;;;;;5034610;28;20177;-87
2021/07/08 01:24:09;;;;;;;0.20;0.20;;;17.00;99.90;;;;;;5034650;28;20209;-87
2021/07/08 01:26:39;;;;;;;0.20;0.20;;;16.80;99.90;;;;;;5034990;28;20557;-87
2021/07/08 01:29:14;;;;;;;0.10;0.10;;;16.60;99.90;;;;;;5032677;28;20193;-87
2021/07/08 01:31:40;;;;;;;0.40;0.40;;;16.50;99.90;;;;;;5048614;28;20304;-87
2021/07/08 01:34:05;;;;;;;0.20;0.20;;;16.50;99.90;;;;;;5034536;28;20493;-87
2021/07/08 01:36:31;;;;;;;0.37;0.17;;;16.50;99.90;;;;;;5052546;28;20186;-87
2021/07/08 01:38:57;;;;;;;0.10;0.10;;;16.70;99.90;;;;;;5031266;28;20184;-87
2021/07/08 01:41:22;;;;;;;0.30;0.30;;;16.70;99.90;;;;;;5031825;28;20701;-87
2021/07/08 01:43:48;;;;;;;0.20;0.20;;;16.80;99.90;;;;;;5034591;28;20214;-86
2021/07/08 01:46:16;;;;;;;0.17;0.17;;;16.80;99.90;;;;;;5052376;28;20188;-87
2021/07/08 01:48:45;;;;;;;0.17;0.17;;;16.80;99.90;;;;;;5033636;28;20268;-87
2021/07/08 01:51:29;;;;;;;0.17;0.17;;;16.90;99.90;;;;;;5034596;28;20234;-87
2021/07/08 01:53:55;;;;;;;0.10;0.10;;;17.00;99.90;;;;;;5034490;28;20613;-86
2021/07/08 01:56:20;;;;;;;0.30;0.30;;;17.00;99.90;;;;;;5052003;28;20181;-87
2021/07/08 01:58:46;;;;;;;0.23;0.23;;;16.90;99.90;;;;;;5052063;28;20654;-87
2021/07/08 02:01:12;;;;;;;0.20;0.20;;;16.90;99.90;;;;;;5052163;28;20184;-87
2021/07/08 02:03:38;;;;;;;0.10;0.10;;;17.10;99.90;;;;;;5034256;28;20641;-87
2021/07/08 02:06:04;;;;;;;0.10;0.10;;;17.20;99.90;;;;;;5034389;28;20193;-87
2021/07/08 02:08:30;;;;;;;0.20;0.20;;;17.30;99.90;;;;;;5051630;28;20666;-87
2021/07/08 02:10:56;;;;;;;6.40;0.30;;;17.20;99.90;;;;;;5050982;28;20231;-87
2021/07/08 02:13:21;;;;;;;0.30;0.30;;;17.40;99.90;;;;;;5034161;28;20298;-87
2021/07/08 02:15:47;;;;;;;0.40;0.10;;;17.40;99.90;;;;;;5034287;28;20261;-87
2021/07/08 02:18:13;;;;;;;0.17;0.17;;;17.50;99.90;;;;;;5033747;28;20221;-87
2021/07/08 02:20:39;;;;;;;0.40;0.40;;;17.50;99.90;;;;;;5054223;28;20284;-86
2021/07/08 02:23:06;;;;;;;0.20;0.20;;;17.50;99.90;;;;;;5037714;28;20182;-87
2021/07/08 02:25:32;;;;;;;0.20;0.20;;;17.30;99.90;;;;;;5038015;28;20192;-86
2021/07/08 02:27:58;;;;;;;0.10;0.10;;;17.20;99.90;;;;;;5037541;28;20174;-88
2021/07/08 02:30:26;;;;;;;0.33;0.33;;;17.00;99.90;;;;;;5054560;28;20185;-88
2021/07/08 02:32:55;;;;;;;0.27;0.27;;;16.90;99.90;;;;;;5042717;28;20191;-87
2021/07/08 02:35:23;;;;;;;0.63;0.50;;;16.80;99.90;;;;;;5042712;28;20209;-86
2021/07/08 02:37:49;;;;;;;0.20;0.20;;;16.80;99.90;;;;;;5055388;28;20201;-86
2021/07/08 02:40:19;;;;;;;0.30;0.30;;;16.90;99.90;;;;;;5037545;28;20186;-86
2021/07/08 02:42:50;;;;;;;2.63;2.43;;;17.00;99.90;;;;;;5037883;28;20185;-87
2021/07/08 02:45:17;;;;;;;0.20;0.20;;;16.90;99.90;;;;;;5037611;28;20205;-88
2021/07/08 02:47:42;;;;;;;0.20;0.20;;;17.10;99.90;;;;;;5055233;28;20699;-87
2021/07/08 02:50:08;;;;;;;0.13;0.13;;;17.20;99.90;;;;;;5055301;28;20192;-87
2021/07/08 02:52:34;;;;;;;0.10;0.10;;;17.40;99.90;;;;;;5037512;28;20204;-88
2021/07/08 02:55:00;;;;;;;0.17;0.17;;;17.40;99.90;;;;;;5053957;28;20236;-86
2021/07/08 02:57:27;;;;;;;0.10;0.10;;;17.40;99.90;;;;;;5037242;28;20185;-86
2021/07/08 02:59:52;;;;;;;0.33;0.30;;;17.10;99.90;;;;;;5053874;28;20197;-86
2021/07/08 03:02:18;;;;;;;0.30;0.20;;;17.20;99.90;;;;;;5037481;28;20182;-87
2021/07/08 03:04:44;;;;;;;0.20;0.20;;;17.30;99.90;;;;;;5036873;28;20202;-87
2021/07/08 03:07:10;;;;;;;0.77;0.53;;;17.30;99.90;;;;;;5054698;28;20181;-87
2021/07/08 03:09:36;;;;;;;0.20;0.20;;;17.30;99.90;;;;;;5036504;28;20292;-87
2021/07/08 03:12:01;;;;;;;0.30;0.30;;;17.20;99.90;;;;;;5055032;28;20253;-87
2021/07/08 03:14:27;;;;;;;0.23;0.23;;;17.40;99.90;;;;;;5036332;28;20220;-87
2021/07/08 03:16:53;;;;;;;1.90;1.60;;;17.50;99.90;;;;;;5036372;28;20594;-87
2021/07/08 03:19:18;;;;;;;0.30;0.30;;;17.60;99.90;;;;;;5054711;28;20188;-87
2021/07/08 03:21:44;;;;;;;0.10;0.10;;;17.70;99.90;;;;;;5037206;28;20186;-87
2021/07/08 03:24:09;;;;;;;0.20;0.20;;;17.80;99.90;;;;;;5054587;28;20590;-87
2021/07/08 03:26:35;;;;;;;0.13;0.13;;;17.60;99.90;;;;;;5054644;28;20190;-92
2021/07/08 03:29:01;;;;;;;0.10;0.10;;;17.70;99.90;;;;;;5054361;28;20192;-88
2021/07/08 03:31:27;;;;;;;0.20;0.20;;;17.70;99.90;;;;;;5053895;28;20626;-87
2021/07/08 03:33:53;;;;;;;0.23;0.20;;;17.80;99.90;;;;;;5036327;28;20206;-87
2021/07/08 03:36:19;;;;;;;0.50;0.50;;;17.80;99.90;;;;;;5036650;28;20203;-87
2021/07/08 03:38:44;;;;;;;0.43;0.30;;;17.70;99.90;;;;;;5036123;28;20188;-87
2021/07/08 03:44:21;;;;;;;0.20;0.20;;;17.60;99.90;;;;;;5042681;28;20212;-87
2021/07/08 03:46:47;;;;;;;0.10;0.10;;;17.70;99.90;;;;;;5036031;28;20208;-87
2021/07/08 03:49:14;;;;;;;0.20;0.20;;;17.70;99.90;;;;;;5036377;28;20193;-87
2021/07/08 03:51:40;;;;;;;0.40;0.40;;;17.70;99.90;;;;;;5036364;28;20235;-87
2021/07/08 03:54:06;;;;;;;0.20;0.20;;;17.70;99.90;;;;;;5054111;28;20618;-86
2021/07/08 03:56:32;;;;;;;0.50;0.50;;;17.60;99.90;;;;;;5036013;28;20179;-87
2021/07/08 03:58:57;;;;;;;0.10;0.10;;;17.60;99.90;;;;;;5035797;28;20212;-87
2021/07/08 04:01:25;;;;;;;1.80;0.77;;;17.60;99.90;;;;;;5036258;28;20646;-86
2021/07/08 04:03:51;;;;;;;0.60;0.60;;;17.70;99.90;;;;;;5042673;28;20228;-87
2021/07/08 04:06:16;;;;;;;0.50;0.50;;;17.70;99.90;;;;;;5035996;28;20201;-87
2021/07/08 04:08:42;;;;;;;0.20;0.20;;;17.80;99.90;;;;;;5025038;28;20237;-87
2021/07/08 04:11:08;;;;;;;0.40;0.40;;;17.80;99.90;;;;;;5052523;28;20213;-87
2021/07/08 04:13:33;;;;;;;1.07;0.70;;;17.90;99.90;;;;;;5035908;28;20207;-86
2021/07/08 04:16:00;;;;;;;0.20;0.20;;;17.90;99.90;;;;;;5035801;28;20197;-87
2021/07/08 04:18:26;;;;;;;0.30;0.30;;;17.90;99.90;;;;;;5035811;28;20181;-87
2021/07/08 04:20:52;;;;;;;0.40;0.40;;;17.90;99.90;;;;;;5052000;28;20216;-87
2021/07/08 04:23:18;;;;;;;0.43;0.43;;;17.80;99.90;;;;;;5035716;28;20645;-87
2021/07/08 04:25:45;;;;;;;0.30;0.23;;;17.80;99.90;;;;;;5035876;28;20691;-87
2021/07/08 04:28:11;;;;;;;0.20;0.20;;;17.80;99.90;;;;;;5035455;28;20178;-87
2021/07/08 04:30:38;;;;;;;0.20;0.20;;;17.90;99.90;;;;;;5053326;28;20218;-87
2021/07/08 04:33:04;;;;;;;0.10;0.10;;;17.90;99.90;;;;;;5053297;28;20183;-87
2021/07/08 04:35:31;;;;;;;0.17;0.17;;;18.00;99.90;;;;;;5035522;28;20213;-86
2021/07/08 04:37:58;;;;;;;0.43;0.43;;;18.10;99.90;;;;;;5052926;28;20186;-87
2021/07/08 04:40:24;;;;;;;0.93;0.93;;;18.10;99.90;;;;;;5052207;28;20270;-87
2021/07/08 04:42:51;;;;;;;0.40;0.40;;;18.10;99.90;;;;;;5034690;28;20204;-86
2021/07/08 04:45:17;;;;;;;0.40;0.40;;;18.10;99.90;;;;;;5034813;28;20209;-88
2021/07/08 04:47:45;;;;;;;0.33;0.20;;;18.20;99.90;;;;;;5035301;28;20640;-87
2021/07/08 04:50:19;;;;;;;0.20;0.20;;;18.20;99.90;;;;;;5053104;28;20192;-87
2021/07/08 04:52:46;;;;;;;0.60;0.30;;;18.30;99.90;;;;;;5051491;28;20276;-87
2021/07/08 04:55:19;;;;;;;0.20;0.20;;;18.40;99.90;;;;;;5034269;28;20201;-87
2021/07/08 04:57:45;;;;;;;0.23;0.23;;;18.40;99.90;;;;;;5051233;28;20186;-87
2021/07/08 05:00:13;;;;;;;4.63;0.90;;;18.50;99.90;;;;;;5052435;28;20182;-87
2021/07/08 05:02:40;;;;;;;0.63;0.20;;;18.50;99.90;;;;;;5034945;28;20200;-86
2021/07/08 05:05:07;;;;;;;0.23;0.23;;;18.50;99.90;;;;;;5051517;28;20212;-87
2021/07/08 05:07:34;;;;;;;0.73;0.43;;;18.60;99.90;;;;;;5052658;28;20186;-86
2021/07/08 05:10:00;;;;;;;0.10;0.10;;;18.60;99.90;;;;;;5052508;28;20252;-86
2021/07/08 05:12:25;;;;;;;0.20;0.20;;;18.60;99.90;;;;;;5030414;28;20277;-87
2021/07/08 05:14:51;;;;;;;0.47;0.47;;;18.60;99.90;;;;;;5039195;28;20224;-86
2021/07/08 05:17:18;;;;;;;0.53;0.53;;;18.60;99.90;;;;;;5038391;28;20749;-86
2021/07/08 05:19:44;;;;;;;0.40;0.27;;;18.70;99.90;;;;;;5051750;28;22064;-86
2021/07/08 05:22:34;;;;;;;0.37;0.30;;;18.70;99.90;;;;;;5051683;28;20181;-87
2021/07/08 05:25:00;;;;;;;0.70;0.30;;;18.70;99.90;;;;;;5018209;28;20653;-87
2021/07/08 05:27:26;;;;;;;2.60;0.40;;;18.80;99.90;;;;;;5069661;28;20185;-87
2021/07/08 05:29:52;;;;;;;0.43;0.43;;;18.90;99.90;;;;;;5051859;28;20174;-87
2021/07/08 05:32:18;;;;;;;3.53;0.57;;;19.10;99.90;;;;;;5051513;28;20190;-86
2021/07/08 05:35:04;;;;;;;0.23;0.17;;;19.30;99.90;;;;;;5034178;28;20233;-89
2021/07/08 05:37:30;;;;;;;0.40;0.40;;;19.40;99.90;;;;;;5035640;28;20184;-87
2021/07/08 05:39:55;;;;;;;0.93;0.73;;;19.50;99.90;;;;;;5052974;28;20201;-86
2021/07/08 05:42:21;;;;;;;0.60;0.30;;;19.50;99.90;;;;;;5034264;28;20189;-86
2021/07/08 05:44:46;;;;;;;0.57;0.53;;;19.60;99.90;;;;;;5051626;28;20201;-86
2021/07/08 05:47:12;;;;;;;0.77;0.30;;;19.70;99.90;;;;;;5035817;28;20217;-86
2021/07/08 05:49:38;;;;;;;0.37;0.37;;;19.60;99.90;;;;;;5057400;28;20260;-87
2021/07/08 05:52:04;;;;;;;0.60;0.60;;;19.50;99.90;;;;;;5049383;28;20324;-86
2021/07/08 05:54:30;;;;;;;1.50;0.53;;;19.50;99.90;;;;;;5053248;28;20214;-85
2021/07/08 05:56:55;;;;;;;0.40;0.40;;;19.40;99.90;;;;;;5054281;28;20174;-87
2021/07/08 05:59:24;;;;;;;0.30;0.30;;;19.40;99.90;;;;;;5071471;28;20189;-87
2021/07/08 06:02:02;;;;;;;0.60;0.60;;;19.30;99.90;;;;;;5057587;28;20174;-87
2021/07/08 06:04:27;;;;;;;0.40;0.30;;;19.30;99.90;;;;;;5054428;28;20285;-86
2021/07/08 06:06:53;;;;;;;0.40;0.40;;;19.20;99.90;;;;;;5036848;28;20264;-87
2021/07/08 06:09:19;;;;;;;0.30;0.30;;;19.20;99.90;;;;;;5055680;28;20276;-87
2021/07/08 06:11:44;;;;;;;0.27;0.27;;;19.20;99.90;;;;;;5030395;28;20182;-85
2021/07/08 06:14:10;;;;;;;0.30;0.30;;;19.30;99.90;;;;;;5040530;28;20206;-85
2021/07/08 06:16:35;;;;;;;0.30;0.30;;;19.10;99.90;;;;;;5039658;28;20611;-86
2021/07/08 06:19:01;;;;;;;0.50;0.50;;;19.20;99.90;;;;;;5056494;28;20220;-86
2021/07/08 06:21:50;;;;;;;0.20;0.20;;;19.30;99.90;;;;;;5060095;28;20216;-86
2021/07/08 06:24:17;;;;;;;0.23;0.23;;;19.40;99.90;;;;;;5054439;28;20259;-88
2021/07/08 06:26:59;;;;;;;0.20;0.20;;;19.50;99.90;;;;;;5052006;28;20209;-89
2021/07/08 06:29:25;;;;;;;2.33;0.40;;;19.60;99.90;;;;;;5035583;28;20654;-87
2021/07/08 06:31:50;;;;;;;1.13;1.03;;;19.60;99.90;;;;;;5037634;28;20292;-87
2021/07/08 06:34:16;;;;;;;0.20;0.20;;;19.70;99.90;;;;;;5037177;28;20743;-87
2021/07/08 06:36:42;;;;;;;0.27;0.27;;;19.80;99.90;;;;;;5037274;28;20610;-88
2021/07/08 06:39:07;;;;;;;0.20;0.20;;;19.90;99.90;;;;;;5055499;28;20592;-87
2021/07/08 06:41:33;;;;;;;0.30;0.30;;;20.10;99.90;;;;;;5035590;28;20276;-87
2021/07/08 06:44:01;;;;;;;0.20;0.20;;;20.20;99.90;;;;;;5053687;28;20213;-87
2021/07/08 06:46:28;;;;;;;0.20;0.20;;;20.30;99.90;;;;;;5034819;28;20243;-87
2021/07/08 06:48:54;;;;;;;0.30;0.30;;;20.30;99.90;;;;;;5052089;28;20682;-87
2021/07/08 06:51:21;;;;;;;0.50;0.50;;;20.30;99.90;;;;;;5037004;28;20181;-87
2021/07/08 06:53:56;;;;;;;0.30;0.30;;;20.40;99.90;;;;;;5053891;28;20213;-87
2021/07/08 06:56:22;;;;;;;1.17;1.17;;;20.40;99.90;;;;;;5036932;28;20544;-87
2021/07/08 06:58:48;;;;;;;0.73;0.73;;;20.40;99.90;;;;;;5054644;28;20551;-87
2021/07/08 07:01:15;;;;;;;0.33;0.33;;;20.40;99.90;;;;;;5054878;28;20185;-87
2021/07/08 07:03:43;;;;;;;0.50;0.50;;;20.50;99.90;;;;;;5040671;28;20205;-87
2021/07/08 07:06:08;;;;;;;0.23;0.23;;;20.60;99.90;;;;;;5048089;28;20185;-88
2021/07/08 07:08:34;;;;;;;0.37;0.37;;;20.60;99.90;;;;;;5055040;28;20178;-87
2021/07/08 07:11:01;;;;;;;0.30;0.30;;;20.60;99.90;;;;;;5036563;28;20569;-87
2021/07/08 07:13:26;;;;;;;0.30;0.30;;;20.50;99.90;;;;;;5037931;28;20283;-87
2021/07/08 07:15:53;;;;;;;0.23;0.23;;;20.70;99.90;;;;;;5031947;28;20226;-87
2021/07/08 07:18:18;;;;;;;1.50;0.40;;;20.80;99.90;;;;;;5036702;28;20280;-88
2021/07/08 07:20:44;;;;;;;0.30;0.30;;;20.90;99.90;;;;;;5053104;28;20271;-90
2021/07/08 07:23:10;;;;;;;0.30;0.30;;;21.00;99.90;;;;;;5054961;28;20182;-87
2021/07/08 07:25:45;;;;;;;0.40;0.40;;;21.10;99.90;;;;;;5036388;28;20185;-87
2021/07/08 07:28:12;;;;;;;0.53;0.30;;;21.10;99.90;;;;;;5036733;28;20191;-87
2021/07/08 07:30:39;;;;;;;0.43;0.43;;;21.30;99.90;;;;;;5054509;28;20535;-87
2021/07/08 07:33:05;;;;;;;0.40;0.40;;;21.50;99.90;;;;;;5039716;28;20185;-87
2021/07/08 07:35:31;;;;;;;1.50;0.90;;;21.70;99.90;;;;;;5059684;28;20228;-87
2021/07/08 07:37:57;;;;;;;0.37;0.30;;;21.70;99.90;;;;;;5035922;28;20186;-86
2021/07/08 07:40:23;;;;;;;0.10;0.10;;;22.00;99.90;;;;;;5054036;28;20177;-87
2021/07/08 07:42:49;;;;;;;0.23;0.23;;;22.20;99.90;;;;;;5054072;28;20182;-88
2021/07/08 07:45:15;;;;;;;0.63;0.63;;;22.00;99.90;;;;;;5047063;28;21019;-87
2021/07/08 07:47:41;;;;;;;0.77;0.40;;;21.50;99.90;;;;;;5045350;28;20185;-87
2021/07/08 07:50:07;;;;;;;1.03;0.83;;;22.10;99.90;;;;;;5054071;28;20250;-87
2021/07/08 07:52:33;;;;;;;0.77;0.50;;;22.50;99.90;;;;;;5053006;28;20271;-87
2021/07/08 07:54:59;;;;;;;0.33;0.33;;;22.90;99.90;;;;;;5054282;28;20613;-87
2021/07/08 07:57:24;;;;;;;0.90;0.90;;;22.80;99.90;;;;;;5036097;28;20173;-88
2021/07/08 08:00:19;;;;;;;0.47;0.40;;;23.00;99.90;;;;;;5036097;28;20211;-88
2021/07/08 08:02:52;;;;;;;0.13;0.13;;;23.50;99.90;;;;;;5054467;28;20174;-88
2021/07/08 08:10:30;;;;;;;0.53;0.53;;;23.70;99.90;;;;;;5054610;28;20192;-86
2021/07/08 08:12:56;;;;;;;0.30;0.30;;;24.10;99.90;;;;;;5033899;28;20557;-87
2021/07/08 08:15:21;;;;;;;0.37;0.37;;;24.40;99.90;;;;;;5035774;28;20208;-86
2021/07/08 08:17:47;;;;;;;0.33;0.33;;;25.00;99.90;;;;;;5032819;28;20197;-87
2021/07/08 08:20:15;;;;;;;0.67;0.67;;;25.00;99.90;;;;;;5031601;28;20216;-86
2021/07/08 08:22:41;;;;;;;0.47;0.47;;;24.60;99.90;;;;;;5048721;28;20190;-87
2021/07/08 08:25:09;;;;;;;1.70;0.40;;;24.80;99.90;;;;;;5040605;28;20213;-88
2021/07/08 08:27:36;;;;;;;0.30;0.30;;;25.20;99.90;;;;;;5056575;28;20186;-88
2021/07/08 08:30:03;;;;;;;0.53;0.50;;;25.40;99.90;;;;;;5042628;28;20201;-87
2021/07/08 08:32:28;;;;;;;0.80;0.80;;;25.20;99.90;;;;;;5062171;28;20200;-87
2021/07/08 08:34:54;;;;;;;0.53;0.50;;;24.50;99.90;;;;;;5051330;28;20205;-87
2021/07/08 08:37:21;;;;;;;0.37;0.37;;;24.40;99.90;;;;;;5045921;28;20191;-87
2021/07/08 08:39:46;;;;;;;0.50;0.50;;;24.50;99.90;;;;;;5035955;28;20897;-86
2021/07/08 08:42:12;;;;;;;0.47;0.47;;;23.80;99.90;;;;;;5053478;28;20209;-87
2021/07/08 08:44:38;;;;;;;0.33;0.33;;;23.90;99.90;;;;;;5044894;28;20245;-87
2021/07/08 08:47:08;;;;;;;0.53;0.53;;;24.40;99.90;;;;;;5033083;28;20197;-87
2021/07/08 08:49:40;;;;;;;0.40;0.40;;;24.70;99.90;;;;;;5043862;28;20183;-87
2021/07/08 08:52:10;;;;;;;0.53;0.53;;;25.10;99.90;;;;;;5054255;28;20221;-88
2021/07/08 08:54:36;;;;;;;0.73;0.40;;;25.10;99.90;;;;;;5053782;28;20553;-87
2021/07/08 08:57:03;;;;;;;0.87;0.57;;;25.00;99.90;;;;;;5035831;28;20591;-87
2021/07/08 08:59:29;;;;;;;0.57;0.50;;;24.10;99.90;;;;;;5034854;28;20189;-86
2021/07/08 09:02:12;;;;;;;2.30;1.10;;;24.10;99.90;;;;;;5052361;28;20196;-87
2021/07/08 09:04:39;;;;;;;0.50;0.50;;;23.80;99.90;;;;;;5053696;28;20202;-87
2021/07/08 09:07:28;;;;;;;0.47;0.47;;;23.50;99.90;;;;;;5035346;28;20213;-87
2021/07/08 09:09:54;;;;;;;0.50;0.40;;;23.80;99.90;;;;;;5052527;28;20705;-88
2021/07/08 09:12:23;;;;;;;0.40;0.40;;;23.70;99.90;;;;;;5035904;28;20189;-87
2021/07/08 09:14:50;;;;;;;0.57;0.57;;;24.20;99.90;;;;;;5052566;28;20233;-86
2021/07/08 09:17:20;;;;;;;0.30;0.30;;;23.90;99.90;;;;;;5054655;28;20661;-87
2021/07/08 09:19:47;;;;;;;2.70;1.40;;;24.10;99.90;;;;;;5038750;28;20676;-87
2021/07/08 09:22:26;;;;;;;0.47;0.47;;;24.60;99.90;;;;;;5061064;28;20174;-87
2021/07/08 09:24:52;;;;;;;1.13;1.03;;;25.10;99.90;;;;;;5047485;28;20578;-87
2021/07/08 09:27:23;;;;;;;0.53;0.53;;;25.10;99.90;;;;;;5043458;28;20194;-87
2021/07/08 09:29:49;;;;;;;0.30;0.30;;;24.90;99.90;;;;;;5041525;28;20250;-87
2021/07/08 09:32:19;;;;;;;0.43;0.43;;;24.90;99.90;;;;;;5042616;28;20562;-87
2021/07/08 09:34:50;;;;;;;0.20;0.20;;;24.90;99.90;;;;;;5059553;28;20208;-87
2021/07/08 09:37:22;;;;;;;0.30;0.30;;;25.60;99.90;;;;;;5041692;28;20178;-87
2021/07/08 09:39:49;;;;;;;0.20;0.20;;;25.90;99.90;;;;;;5044343;28;20246;-86
2021/07/08 09:42:18;;;;;;;0.57;0.40;;;26.20;99.90;;;;;;5048416;28;20177;-87
2021/07/08 09:44:45;;;;;;;0.20;0.20;;;25.60;99.90;;;;;;5081011;28;20206;-89
2021/07/08 09:47:27;;;;;;;0.20;0.20;;;25.90;99.90;;;;;;5058369;28;20186;-88
2021/07/08 09:49:53;;;;;;;0.50;0.30;;;26.50;99.90;;;;;;5051883;28;20207;-87
2021/07/08 09:52:19;;;;;;;0.10;0.10;;;26.90;99.90;;;;;;5041567;28;20188;-87
2021/07/08 09:57:32;;;;;;;0.20;0.20;;;27.10;99.90;;;;;;5048823;28;20185;-87
2021/07/08 09:59:59;;;;;;;0.40;0.40;;;26.70;99.90;;;;;;5046009;28;20249;-87
2021/07/08 10:02:30;;;;;;;0.27;0.27;;;26.70;99.90;;;;;;5063545;28;20184;-87
2021/07/08 10:04:58;;;;;;;0.20;0.20;;;27.00;99.90;;;;;;5068249;28;20228;-87
2021/07/08 10:07:24;;;;;;;0.20;0.20;;;27.10;99.90;;;;;;5065490;28;20178;-87
2021/07/08 10:09:51;;;;;;;0.30;0.30;;;26.80;99.90;;;;;;5069343;28;20166;-87
2021/07/08 10:12:17;;;;;;;0.20;0.20;;;27.00;99.90;;;;;;5070709;28;20208;-87
2021/07/08 10:14:43;;;;;;;0.60;0.27;;;26.80;99.90;;;;;;5048388;28;20216;-87
2021/07/08 10:17:11;;;;;;;0.30;0.30;;;26.60;99.90;;;;;;5053935;28;20223;-90
2021/07/08 10:19:38;;;;;;;0.30;0.30;;;26.30;99.90;;;;;;5048560;28;20674;-87
2021/07/08 10:22:04;;;;;;;0.20;0.20;;;26.40;99.90;;;;;;5053661;28;20169;-87
2021/07/08 10:24:30;;;;;;;0.50;0.20;;;26.70;99.90;;;;;;5034504;28;20308;-87
2021/07/08 10:26:57;;;;;;;0.10;0.10;;;26.70;99.90;;;;;;5053404;28;20193;-88
2021/07/08 10:29:24;;;;;;;0.13;0.13;;;27.00;99.90;;;;;;5037531;28;20188;-87
2021/07/08 10:31:50;;;;;;;0.30;0.30;;;27.10;99.90;;;;;;5049717;28;20181;-87
2021/07/08 10:34:18;;;;;;;0.20;0.20;;;27.20;99.90;;;;;;5051617;28;20213;-87
2021/07/08 10:36:46;;;;;;;0.67;0.60;;;27.30;99.90;;;;;;5034639;28;20205;-87
2021/07/08 10:39:20;;;;;;;0.30;0.30;;;27.30;99.90;;;;;;5035259;28;20315;-87
2021/07/08 10:41:52;;;;;;;0.27;0.27;;;27.20;99.90;;;;;;5037989;28;20170;-87
2021/07/08 10:44:39;;;;;;;0.17;0.17;;;27.40;99.90;;;;;;5055865;28;20210;-87
2021/07/08 10:47:06;;;;;;;0.20;0.20;;;27.30;99.90;;;;;;5055527;28;20180;-87
2021/07/08 10:49:40;;;;;;;0.30;0.30;;;27.20;99.90;;;;;;5055706;28;20182;-87
2021/07/08 10:52:10;;;;;;;2.10;1.33;;;27.10;99.90;;;;;;5055551;28;20197;-87
2021/07/08 10:54:36;;;;;;;0.20;0.20;;;26.40;99.90;;;;;;5055443;28;20204;-87
2021/07/08 10:57:03;;;;;;;0.40;0.40;;;26.60;99.90;;;;;;5037387;28;20185;-87
2021/07/08 10:59:45;;;;;;;0.20;0.20;;;25.80;99.90;;;;;;5061603;28;20561;-87
2021/07/08 11:02:30;;;;;;;0.20;0.20;;;26.00;99.90;;;;;;5032617;28;20173;-88
2021/07/08 11:04:56;;;;;;;0.20;0.20;;;26.20;99.90;;;;;;5036960;28;20234;-87
2021/07/08 11:07:22;;;;;;;0.10;0.10;;;26.20;99.90;;;;;;5037220;28;20225;-87
2021/07/08 11:10:15;;;;;;;0.20;0.20;;;26.50;99.90;;;;;;5054988;28;20177;-87
2021/07/08 11:12:43;;;;;;;0.30;0.30;;;26.80;99.90;;;;;;5034573;28;20189;-87
2021/07/08 11:15:09;;;;;;;0.73;0.30;;;27.20;99.90;;;;;;5055192;28;20773;-87
2021/07/08 11:17:45;;;;;;;0.30;0.27;;;27.40;99.90;;;;;;5037691;28;20286;-88
2021/07/08 11:20:40;;;;;;;0.20;0.20;;;27.50;99.90;;;;;;5037986;28;20740;-87
2021/07/08 11:23:28;;;;;;;0.40;0.40;;;27.30;99.90;;;;;;5038275;28;20201;-87
2021/07/08 11:25:54;;;;;;;0.30;0.30;;;26.90;99.90;;;;;;5055059;28;20181;-87
2021/07/08 11:28:31;;;;;;;0.30;0.30;;;26.80;99.90;;;;;;5054494;28;20181;-87
2021/07/08 11:31:05;;;;;;;0.30;0.30;;;26.90;99.90;;;;;;5036828;28;20186;-87
2021/07/08 11:33:35;;;;;;;0.20;0.20;;;27.10;99.90;;;;;;5036992;28;20357;-87
2021/07/08 11:36:19;;;;;;;0.20;0.20;;;27.10;99.90;;;;;;5036923;28;20177;-87
2021/07/08 11:38:48;;;;;;;0.20;0.20;;;27.20;99.90;;;;;;5036575;28;20189;-87
2021/07/08 11:41:15;;;;;;;0.40;0.40;;;27.30;99.90;;;;;;5054473;28;20182;-87
2021/07/08 11:43:49;;;;;;;0.70;0.70;;;27.00;99.90;;;;;;5036236;28;20201;-87
2021/07/08 11:46:17;;;;;;;0.40;0.40;;;26.90;99.90;;;;;;5036551;28;20267;-86
2021/07/08 11:48:44;;;;;;;0.40;0.40;;;27.00;99.90;;;;;;5054511;28;20176;-86
2021/07/08 11:51:16;;;;;;;0.30;0.30;;;26.70;99.90;;;;;;5054150;28;20174;-87
2021/07/08 11:53:43;;;;;;;0.20;0.20;;;26.90;99.90;;;;;;5053389;28;20723;-88
2021/07/08 11:56:09;;;;;;;0.67;0.40;;;27.00;99.90;;;;;;5036319;28;20272;-87
2021/07/08 11:58:35;;;;;;;0.53;0.40;;;26.90;99.90;;;;;;5032738;28;20277;-87
2021/07/08 12:01:07;;;;;;;0.20;0.20;;;26.70;99.90;;;;;;5049689;28;20185;-87
2021/07/08 12:03:39;;;;;;;0.27;0.23;;;26.60;99.90;;;;;;5053159;28;20300;-87
2021/07/08 12:06:17;;;;;;;0.40;0.40;;;26.50;99.90;;;;;;5035337;28;20278;-87
2021/07/08 12:08:54;;;;;;;0.30;0.30;;;26.40;99.90;;;;;;5050912;28;20174;-86
2021/07/08 12:11:34;;;;;;;1.60;0.70;;;26.10;99.90;;;;;;5053488;28;20223;-86
2021/07/08 12:14:11;;;;;;;0.30;0.30;;;26.10;99.90;;;;;;5043680;28;20808;-87
2021/07/08 12:16:39;;;;;;;0.33;0.33;;;26.30;99.90;;;;;;5035297;28;20268;-89
2021/07/08 12:19:15;;;;;;;0.27;0.27;;;26.30;99.90;;;;;;5036006;28;20189;-88
2021/07/08 12:21:51;;;;;;;0.30;0.30;;;26.50;99.90;;;;;;5052896;28;20188;-87
2021/07/08 12:24:26;;;;;;;0.30;0.30;;;25.90;99.90;;;;;;5053186;28;20224;-87
2021/07/08 12:26:56;;;;;;;0.77;0.77;;;25.70;99.90;;;;;;5035095;28;20715;-87
2021/07/08 12:29:24;;;;;;;0.50;0.50;;;26.00;99.90;;;;;;5037143;28;20322;-87
2021/07/08 12:31:58;;;;;;;0.20;0.20;;;26.30;99.90;;;;;;5053264;28;20668;-88
2021/07/08 12:34:32;;;;;;;0.40;0.40;;;26.60;99.90;;;;;;5054074;28;20201;-87
2021/07/08 12:37:20;;;;;;;0.20;0.20;;;26.70;99.90;;;;;;5067783;28;20196;-87
2021/07/08 12:40:06;;;;;;;0.57;0.57;;;26.60;99.90;;;;;;5034715;28;20323;-87
2021/07/08 12:42:42;;;;;;;0.50;0.50;;;26.40;99.90;;;;;;5037580;28;20182;-87
2021/07/08 12:45:20;;;;;;;0.40;0.40;;;26.20;99.90;;;;;;5035157;28;20259;-87
2021/07/08 12:47:51;;;;;;;0.60;0.60;;;25.90;99.90;;;;;;5052668;28;20170;-87
2021/07/08 12:50:27;;;;;;;0.30;0.30;;;25.60;99.90;;;;;;5049139;28;20189;-88
2021/07/08 12:53:04;;;;;;;1.30;0.30;;;25.40;99.90;;;;;;5052963;28;20177;-88
2021/07/08 12:55:33;;;;;;;0.17;0.17;;;25.20;99.90;;;;;;5034238;28;20204;-87
2021/07/08 12:58:03;;;;;;;0.63;0.30;;;25.00;99.90;;;;;;5034544;28;20650;-87
2021/07/08 13:00:33;;;;;;;0.50;0.50;;;24.90;99.90;;;;;;5029452;28;20177;-87
2021/07/08 13:03:05;;;;;;;0.50;0.50;;;24.60;99.90;;;;;;5034782;28;20181;-89
2021/07/08 13:05:36;;;;;;;1.10;0.63;;;24.30;99.90;;;;;;5034342;28;20217;-86